Terminal Aerodrome Forecast
Issued by NWS Twin Cities, MN

Home | Current Version | Previous Version | Text Only | Print | Product List | Glossary On
Versions: 1 2 3 4 5 6 7 8 9 10 11 12 13 14 15 16 17 18 19 20 21 22 23 24 25
000
FTUS43 KMPX 261120
TAFMSP
TAF
KMSP 261120Z 2612/2718 22007KT P6SM BKN250
     FM261600 27013KT P6SM BKN250
     FM261700 33014G24KT P6SM BKN090
     FM270300 32004KT P6SM SKC
     FM271200 23007KT P6SM SCT120
     FM271500 30014G24KT P6SM FEW150=

USA.gov is the U.S. government's official web portal to all federal, state and local government web resources and services.